Terminal Aerodrome Forecast
Issued by NWS

Home | Current Version | Previous Version | Text Only | Print | Product List | Glossary On
Versions: 1 2 3 4 5 6 7 8 9 10 11 12 13
000
FTUS45 KGJT 260544
TAFCNY
TAF
KCNY 260544Z 2606/2706 08007KT P6SM VCSH BKN080
     FM260900 13007KT P6SM SCT080
     FM261600 19012G21KT P6SM FEW130
     FM262100 22020G28KT P6SM FEW150
     FM270200 26013G21KT P6SM BKN130=

USA.gov is the U.S. government's official web portal to all federal, state and local government web resources and services.